Portada
METAR-TAF:

METAR-TAF

Aeroports :

Grove, Oklahoma, Estats Units d'Amèrica

latitud: 36-36-19N, longitud: 094-44-19W, altitud: 254 m

Observació

L'informe es va fer fa 16 minuts, a les 11:35 UTC
Vent 12 kt del Sud amb ràfegues de 15 kt
Temperatura 17°C
Humitat 88%
Pressió 1013 hPa
Visibilitat: 16.1 km
Cel cobert a una alçada de 1600 ft

METAR: KGMJ 211135Z AUTO 19012G15KT 10SM OVC016 17/15 A2992 RMK AO2

Hora: 05:51 (11:51 UTC)


TAF: manca

Observacions i pronòstics meteorològics de més de 4000 aeroports (METAR i TAF).

Les estacions disponibles són els punts grocs i vermells al mapa.

Posi el ratolí al punt desitjat per veure el nom de l'estació.

Feu clic per veure les observacions i els pronòstics meteorològics.

Per canviar el mapa: feu clic els botons verds amb una creu de color negre per apropar; al botó verd amb un guió per allunyar la imatge; o en les fletxes verdes per a mapes adjacents.


METAR-TAF: